Time;durP1;ratioP1;P1;durP2;ratioP2;P2;SDS_P1;SDS_P2;PMS_P1;PMS_P2;Temp;Humidity;BMP_temperature;BMP_pressure;BME280_temperature;BME280_humidity;BME280_pressure;Samples;Min_cycle;Max_cycle;Signal;HPM_P1;HPM_P2
2021/12/10 00:02:07;;;;;;;;;;;;;;;3.27;93.23;99671.30;1766875;80;21564;-59
2021/12/10 00:04:37;;;;;;;21.82;9.00;;;;;;;3.24;93.75;99670.03;1775472;80;20133;-59
2021/12/10 00:07:15;;;;;;;11.18;8.53;;;;;;;3.16;96.36;99672.73;1759731;79;21521;-59
2021/12/10 00:09:47;;;;;;;9.95;8.60;;;;;;;3.19;94.49;99666.20;1752147;79;22186;-59
2021/12/10 00:12:25;;;;;;;11.88;9.58;;;;;;;3.26;94.73;99664.41;1746480;80;21516;-59
2021/12/10 00:14:53;;;;;;;27.37;8.40;;;;;;;3.29;94.60;99665.20;1761646;79;21501;-58
2021/12/10 00:17:21;;;;;;;30.05;9.80;;;;;;;3.25;94.41;99665.27;1757752;79;21596;-59
2021/12/10 00:19:53;;;;;;;14.60;9.20;;;;;;;3.23;94.35;99665.28;1755360;79;21433;-58
2021/12/10 00:22:27;;;;;;;18.12;10.08;;;;;;;3.25;95.25;99670.47;1750320;80;22124;-59
2021/12/10 00:24:54;;;;;;;23.87;10.08;;;;;;;3.32;94.90;99672.12;1769848;79;21029;-58
2021/12/10 00:27:28;;;;;;;20.37;9.83;;;;;;;3.38;94.25;99677.23;1760453;79;21041;-58
2021/12/10 00:29:50;;;;;;;27.58;10.85;;;;;;;3.36;97.25;99672.49;1749643;79;21943;-58
2021/12/10 00:32:28;;;;;;;30.50;10.23;;;;;;;3.29;96.94;99670.84;1768758;80;21605;-59
2021/12/10 00:34:50;;;;;;;15.68;9.73;;;;;;;3.29;96.21;99675.59;1748724;80;22107;-58
2021/12/10 00:37:20;;;;;;;16.32;10.08;;;;;;;3.39;95.46;99671.16;1776812;79;21426;-58
2021/12/10 00:39:52;;;;;;;34.85;9.73;;;;;;;3.49;94.70;99674.50;1760230;80;21458;-58
2021/12/10 00:42:23;;;;;;;29.35;9.85;;;;;;;3.47;94.45;99670.61;1756800;79;21053;-58
2021/12/10 00:44:50;;;;;;;19.37;9.90;;;;;;;3.44;94.66;99669.79;1766113;80;20972;-59
2021/12/10 00:47:17;;;;;;;16.75;9.73;;;;;;;3.45;95.11;99665.87;1745835;80;22185;-58
2021/12/10 00:49:44;;;;;;;27.17;11.23;;;;;;;3.51;94.34;99664.94;1755655;80;21437;-57
2021/12/10 00:52:13;;;;;;;20.05;10.10;;;;;;;3.54;95.72;99674.42;1758783;79;21563;-57
2021/12/10 00:54:40;;;;;;;28.35;10.53;;;;;;;3.53;94.70;99671.42;1749984;80;21402;-57
2021/12/10 00:57:08;;;;;;;19.52;10.50;;;;;;;3.49;95.00;99667.55;1778327;80;21434;-57
2021/12/10 00:59:36;;;;;;;23.87;10.85;;;;;;;3.47;95.24;99660.66;1765848;79;21820;-57
2021/12/10 01:02:06;;;;;;;20.40;10.25;;;;;;;3.53;95.82;99662.32;1754603;79;21154;-60
2021/12/10 01:04:35;;;;;;;46.88;11.15;;;;;;;3.58;95.16;99657.47;1748284;80;21497;-58
2021/12/10 01:07:07;;;;;;;40.58;10.55;;;;;;;3.56;95.77;99657.05;1759039;79;21474;-58
2021/12/10 01:09:38;;;;;;;42.67;10.45;;;;;;;3.50;96.01;99655.41;1753680;80;21429;-58
2021/12/10 01:12:11;;;;;;;28.60;10.78;;;;;;;3.47;95.21;99658.06;1756461;80;21597;-59
2021/12/10 01:28:25;;;;;;;19.30;8.98;;;;;;;3.52;95.69;99625.04;1708680;80;21410;-58
2021/12/10 01:30:52;;;;;;;21.83;9.47;;;;;;;3.60;96.85;99621.02;1756701;80;21540;-58
2021/12/10 01:33:19;;;;;;;36.77;9.13;;;;;;;3.67;95.51;99620.94;1744421;80;21473;-60
2021/12/10 01:35:53;;;;;;;30.60;8.87;;;;;;;3.67;95.32;99613.56;1775389;80;21504;-58
2021/12/10 01:38:21;;;;;;;34.75;9.50;;;;;;;3.61;95.17;99614.95;1752399;80;21483;-58
2021/12/10 01:40:52;;;;;;;;;;;;;;;3.59;95.30;99612.83;1751694;80;21553;-58
2021/12/10 01:43:23;;;;;;;13.10;8.70;;;;;;;3.61;95.16;99609.76;1756198;79;20150;-58
2021/12/10 01:46:01;;;;;;;27.32;9.33;;;;;;;3.68;95.43;99610.94;1757645;79;21477;-58
2021/12/10 01:48:30;;;;;;;31.25;9.20;;;;;;;3.76;94.89;99604.31;1752532;79;21041;-58
2021/12/10 01:50:58;;;;;;;20.97;8.93;;;;;;;3.74;95.64;99606.08;1766449;80;21790;-58
2021/12/10 01:53:27;;;;;;;26.25;8.78;;;;;;;3.69;95.43;99610.07;1753341;80;21425;-58
2021/12/10 01:55:57;;;;;;;36.55;7.75;;;;;;;3.70;95.64;99613.52;1758497;80;21522;-58
2021/12/10 01:58:25;;;;;;;24.52;8.05;;;;;;;3.78;95.68;99614.70;1758852;79;21494;-58
2021/12/10 02:00:59;;;;;;;21.42;8.55;;;;;;;3.86;95.17;99615.01;1745102;80;21021;-58
2021/12/10 02:03:26;;;;;;;28.45;8.60;;;;;;;3.83;95.90;99618.95;1770636;79;21808;-58
2021/12/10 02:05:54;;;;;;;20.72;7.55;;;;;;;3.78;96.30;99619.91;1757181;80;21560;-58
2021/12/10 02:08:21;;;;;;;8.28;7.37;;;;;;;3.79;96.67;99617.73;1753833;79;21490;-58
2021/12/10 02:10:48;;;;;;;12.23;6.80;;;;;;;3.86;95.57;99607.20;1744778;80;21584;-58
2021/12/10 02:13:15;;;;;;;24.75;8.95;;;;;;;3.94;94.80;99605.78;1754239;80;21485;-58
2021/12/10 02:15:42;;;;;;;24.30;8.20;;;;;;;3.94;94.93;99608.38;1750729;79;21740;-58
2021/12/10 02:18:09;;;;;;;16.45;7.65;;;;;;;3.89;94.76;99608.89;1758584;79;21415;-58
2021/12/10 02:20:56;;;;;;;21.82;8.43;;;;;;;3.87;95.18;99617.16;1758004;79;20993;-59
2021/12/10 02:23:23;;;;;;;14.03;8.68;;;;;;;3.93;94.27;99614.91;1750948;79;21465;-59
2021/12/10 02:25:50;;;;;;;21.23;8.33;;;;;;;4.01;95.46;99617.81;1753635;79;21437;-59
2021/12/10 02:28:18;;;;;;;23.27;9.10;;;;;;;4.05;95.22;99622.49;1754544;80;21806;-59
2021/12/10 02:30:45;;;;;;;28.35;10.13;;;;;;;4.01;95.15;99631.23;1777021;80;21493;-58
2021/12/10 02:33:12;;;;;;;22.50;8.70;;;;;;;3.94;95.31;99631.80;1766737;79;21591;-61
2021/12/10 02:35:38;;;;;;;21.33;9.20;;;;;;;3.97;95.25;99623.07;1765713;79;21100;-59
2021/12/10 02:38:06;;;;;;;21.87;9.80;;;;;;;4.07;95.34;99620.75;1755018;79;22109;-59
2021/12/10 02:40:34;;;;;;;25.40;9.50;;;;;;;4.09;94.90;99621.13;1739698;79;21998;-58
2021/12/10 02:43:05;;;;;;;38.38;9.90;;;;;;;4.07;94.55;99621.60;1756824;79;21473;-59
2021/12/10 02:45:32;;;;;;;26.57;9.60;;;;;;;4.04;95.08;99619.04;1757822;80;21611;-58
2021/12/10 02:47:59;;;;;;;17.90;9.30;;;;;;;4.06;95.14;99622.92;1742635;80;21482;-58
2021/12/10 02:50:28;;;;;;;13.15;9.78;;;;;;;4.15;94.85;99621.47;1750555;80;21404;-58
2021/12/10 02:52:56;;;;;;;15.63;8.40;;;;;;;4.22;94.01;99624.39;1755962;79;22123;-57
2021/12/10 02:55:22;;;;;;;23.00;8.95;;;;;;;4.24;93.60;99613.96;1751430;79;21632;-58
2021/12/10 02:57:55;;;;;;;15.23;9.08;;;;;;;4.22;93.38;99624.39;1752732;79;21580;-58
2021/12/10 03:00:26;;;;;;;26.27;9.35;;;;;;;4.20;93.53;99620.08;1772689;79;21501;-58
2021/12/10 03:02:53;;;;;;;14.75;9.23;;;;;;;4.19;93.14;99619.23;1760264;79;21508;-58
2021/12/10 03:05:21;;;;;;;22.65;9.73;;;;;;;4.27;92.59;99625.59;1756876;79;21804;-58
2021/12/10 03:07:48;;;;;;;26.90;9.30;;;;;;;4.31;92.51;99622.50;1754739;80;21465;-58
2021/12/10 03:10:20;;;;;;;11.88;9.75;;;;;;;4.29;92.21;99618.20;1752894;80;21703;-58
2021/12/10 03:12:48;;;;;;;9.55;8.53;;;;;;;4.26;91.90;99629.11;1765588;80;21473;-58
2021/12/10 03:15:16;;;;;;;10.90;9.75;;;;;;;4.26;91.59;99631.25;1753858;80;21413;-60
2021/12/10 03:17:44;;;;;;;11.63;9.38;;;;;;;4.34;91.36;99632.42;1765522;80;21773;-58
2021/12/10 03:20:13;;;;;;;11.35;10.03;;;;;;;4.41;90.83;99639.24;1751295;79;21422;-58
2021/12/10 03:22:41;;;;;;;11.40;9.70;;;;;;;4.38;90.76;99628.88;1751012;79;21592;-58
2021/12/10 03:25:12;;;;;;;10.30;9.20;;;;;;;4.33;90.46;99635.89;1768009;80;21033;-62
2021/12/10 03:27:39;;;;;;;10.50;9.20;;;;;;;4.34;90.48;99629.81;1763914;80;21620;-58
2021/12/10 03:30:11;;;;;;;9.98;8.68;;;;;;;4.42;90.32;99623.17;1751858;79;21805;-58
2021/12/10 03:32:39;;;;;;;10.45;9.35;;;;;;;4.47;90.13;99625.26;1756388;79;21581;-59
2021/12/10 03:35:13;;;;;;;11.12;9.38;;;;;;;4.48;90.24;99623.05;1750772;80;22223;-59
2021/12/10 03:37:42;;;;;;;11.12;9.28;;;;;;;4.45;90.22;99626.58;1770102;80;21537;-58
2021/12/10 03:40:12;;;;;;;9.45;8.48;;;;;;;4.46;90.20;99630.03;1755591;80;21581;-58
2021/12/10 03:42:39;;;;;;;10.43;8.90;;;;;;;4.54;90.04;99632.08;1763882;79;21561;-58
2021/12/10 03:45:09;;;;;;;15.20;9.63;;;;;;;4.53;89.96;99632.09;1758303;80;21474;-58
2021/12/10 03:47:36;;;;;;;13.18;10.03;;;;;;;4.48;90.31;99633.47;1747457;79;21486;-58
2021/12/10 03:50:04;;;;;;;14.83;10.85;;;;;;;4.41;90.51;99644.45;1768142;79;21511;-58
2021/12/10 03:52:32;;;;;;;15.35;9.90;;;;;;;4.39;90.90;99646.64;1766131;79;21514;-59
2021/12/10 03:55:00;;;;;;;11.50;9.45;;;;;;;4.47;90.84;99645.63;1749090;79;21783;-59
2021/12/10 03:57:27;;;;;;;13.25;10.45;;;;;;;4.50;90.48;99646.01;1748878;80;21547;-59
2021/12/10 03:59:54;;;;;;;13.45;10.80;;;;;;;4.42;90.41;99643.55;1758248;80;21588;-59
2021/12/10 04:02:21;;;;;;;12.45;9.88;;;;;;;4.36;90.85;99636.30;1751918;79;21533;-59
2021/12/10 04:04:50;;;;;;;13.30;9.83;;;;;;;4.34;91.15;99625.06;1757270;79;21406;-59
2021/12/10 04:07:21;;;;;;;12.90;10.45;;;;;;;4.41;90.86;99630.58;1762433;80;21402;-59
2021/12/10 04:09:49;;;;;;;13.25;11.03;;;;;;;4.44;90.69;99630.05;1745544;79;21406;-60
2021/12/10 04:12:17;;;;;;;14.43;10.85;;;;;;;4.41;90.67;99625.38;1751135;80;21456;-59
2021/12/10 04:14:46;;;;;;;15.98;11.88;;;;;;;4.38;90.68;99631.92;1737605;80;21812;-59
2021/12/10 04:17:13;;;;;;;16.85;11.38;;;;;;;4.35;90.90;99630.67;1747475;80;21552;-61
2021/12/10 04:19:41;;;;;;;15.13;10.88;;;;;;;4.43;90.83;99628.80;1757519;80;22014;-59
2021/12/10 04:22:08;;;;;;;13.73;10.93;;;;;;;4.48;90.52;99621.75;1756507;80;21423;-59
2021/12/10 04:24:37;;;;;;;11.53;9.70;;;;;;;4.48;90.52;99621.75;1757782;79;21418;-60
2021/12/10 04:27:06;;;;;;;13.75;10.38;;;;;;;4.42;90.16;99628.37;1747373;79;21467;-59
2021/12/10 04:29:33;;;;;;;12.60;10.50;;;;;;;4.40;90.23;99622.34;1751895;80;21541;-59
2021/12/10 04:32:00;;;;;;;12.00;10.00;;;;;;;4.42;90.00;99626.63;1753775;80;21798;-59
2021/12/10 04:34:27;;;;;;;11.50;10.20;;;;;;;4.51;89.76;99629.52;1763666;79;21475;-59
2021/12/10 04:36:56;;;;;;;14.33;10.98;;;;;;;4.59;89.56;99618.95;1767178;79;21946;-59
2021/12/10 04:39:25;;;;;;;14.93;11.18;;;;;;;4.60;89.32;99616.33;1760677;79;21593;-59
2021/12/10 04:41:52;;;;;;;17.00;12.63;;;;;;;4.58;89.14;99611.59;1760601;80;21427;-59
2021/12/10 04:44:19;;;;;;;15.70;12.30;;;;;;;4.52;89.18;99610.84;1765222;80;21844;-59
2021/12/10 04:46:46;;;;;;;16.75;12.18;;;;;;;4.52;89.21;99611.72;1770117;80;21565;-58
2021/12/10 04:49:14;;;;;;;12.88;10.95;;;;;;;4.57;89.01;99607.26;1763546;79;21465;-58
2021/12/10 04:51:45;;;;;;;17.07;13.10;;;;;;;4.64;88.93;99601.50;1773042;80;21525;-58
2021/12/10 04:54:14;;;;;;;15.55;13.35;;;;;;;4.65;88.88;99607.99;1771184;79;21543;-58
2021/12/10 04:56:43;;;;;;;16.32;12.58;;;;;;;4.61;88.79;99601.10;1752586;79;21488;-57
2021/12/10 04:59:12;;;;;;;19.92;13.30;;;;;;;4.58;88.74;99606.39;1749066;80;21632;-59
2021/12/10 05:01:38;;;;;;;17.20;13.25;;;;;;;4.55;88.81;99609.48;1758500;80;21517;-58
2021/12/10 05:04:07;;;;;;;17.42;13.20;;;;;;;4.62;88.69;99608.49;1756656;79;21496;-59
2021/12/10 05:06:35;;;;;;;15.68;13.40;;;;;;;4.67;88.60;99603.61;1762856;79;21427;-59
2021/12/10 05:09:03;;;;;;;;;;;;;;;4.70;88.58;99604.44;1777678;80;21557;-59
2021/12/10 05:11:30;;;;;;;19.48;15.55;;;;;;;4.66;88.48;99604.94;1769552;80;20137;-59
2021/12/10 05:13:57;;;;;;;18.10;13.38;;;;;;;4.57;88.61;99595.99;1768467;80;21573;-60
2021/12/10 05:16:26;;;;;;;17.95;13.53;;;;;;;4.57;88.61;99607.26;1758672;80;21494;-58
2021/12/10 05:18:58;;;;;;;16.45;12.47;;;;;;;4.61;88.60;99615.88;1748421;79;21616;-59
2021/12/10 05:21:28;;;;;;;19.50;13.53;;;;;;;4.67;88.59;99616.62;1758672;80;21501;-59
2021/12/10 05:23:56;;;;;;;16.40;12.93;;;;;;;4.69;88.57;99621.82;1757259;79;21592;-59
2021/12/10 05:26:23;;;;;;;18.62;13.88;;;;;;;4.66;88.70;99623.16;1760219;79;20990;-59
2021/12/10 05:28:50;;;;;;;16.53;13.40;;;;;;;4.63;88.69;99627.13;1751627;80;21521;-59
2021/12/10 05:31:16;;;;;;;19.10;12.98;;;;;;;4.61;88.85;99635.41;1754331;79;21540;-59
2021/12/10 05:33:43;;;;;;;16.37;13.77;;;;;;;4.68;88.81;99635.71;1749082;79;21795;-59
2021/12/10 05:36:10;;;;;;;15.25;12.90;;;;;;;4.74;88.74;99631.68;1752377;79;21035;-58
2021/12/10 05:38:37;;;;;;;18.35;13.93;;;;;;;4.76;88.58;99639.02;1768115;80;21706;-59
2021/12/10 05:41:06;;;;;;;18.40;14.37;;;;;;;4.73;88.67;99642.13;1744419;80;21563;-60
2021/12/10 05:43:34;;;;;;;18.80;13.58;;;;;;;4.68;88.63;99654.80;1753614;79;21521;-59
2021/12/10 05:46:00;;;;;;;20.50;14.18;;;;;;;4.66;88.70;99653.97;1742583;80;21719;-59
2021/12/10 05:48:28;;;;;;;19.05;14.83;;;;;;;4.75;88.62;99650.34;1764386;80;21466;-59
2021/12/10 05:50:55;;;;;;;22.85;16.35;;;;;;;4.78;88.65;99652.02;1759917;80;21010;-59
2021/12/10 05:53:22;;;;;;;21.53;15.43;;;;;;;4.80;88.54;99647.22;1758444;79;21017;-58
2021/12/10 05:55:50;;;;;;;21.82;16.10;;;;;;;4.77;88.63;99648.56;1765399;79;21167;-58
2021/12/10 05:58:17;;;;;;;17.83;14.60;;;;;;;4.75;88.71;99656.01;1753511;79;21782;-60
2021/12/10 06:00:54;;;;;;;18.07;13.70;;;;;;;4.76;88.70;99655.10;1754840;80;21588;-60
2021/12/10 06:03:23;;;;;;;18.52;14.85;;;;;;;4.84;88.50;99655.38;1750353;80;21134;-58
2021/12/10 06:05:50;;;;;;;23.90;15.43;;;;;;;4.90;88.33;99646.59;1755196;80;21436;-59
2021/12/10 06:08:17;;;;;;;21.30;16.23;;;;;;;4.92;88.16;99652.63;1751879;79;21433;-59
2021/12/10 06:10:44;;;;;;;22.03;17.20;;;;;;;4.91;88.16;99656.56;1756311;79;21735;-59
2021/12/10 06:13:11;;;;;;;22.27;15.85;;;;;;;4.85;88.11;99653.62;1764533;79;21430;-59
2021/12/10 06:15:38;;;;;;;22.00;16.35;;;;;;;4.85;88.22;99649.27;1771432;80;21426;-59
2021/12/10 06:18:06;;;;;;;20.52;15.23;;;;;;;4.92;88.03;99644.81;1764981;79;21666;-59
2021/12/10 06:20:37;;;;;;;21.87;16.35;;;;;;;4.98;87.96;99652.95;1752776;79;21625;-60
2021/12/10 06:23:04;;;;;;;20.75;16.75;;;;;;;4.95;87.86;99655.60;1769557;79;21807;-59
2021/12/10 06:25:32;;;;;;;23.02;16.23;;;;;;;4.89;88.01;99659.19;1767024;79;21435;-59
2021/12/10 06:27:59;;;;;;;19.52;15.13;;;;;;;4.83;88.11;99650.20;1765469;79;21036;-59
2021/12/10 06:30:31;;;;;;;21.77;15.40;;;;;;;4.81;88.29;99658.03;1756279;79;21577;-59
2021/12/10 06:33:00;;;;;;;19.80;14.05;;;;;;;4.90;88.17;99658.73;1754425;79;21568;-59
2021/12/10 06:35:29;;;;;;;20.60;15.80;;;;;;;4.93;88.14;99655.63;1737110;79;21768;-60
2021/12/10 06:37:56;;;;;;;20.25;15.20;;;;;;;4.94;88.13;99649.55;1751918;79;21191;-59
2021/12/10 06:40:24;;;;;;;19.45;14.18;;;;;;;4.93;88.08;99659.98;1762399;80;21524;-59
2021/12/10 06:42:51;;;;;;;16.85;13.05;;;;;;;4.89;88.20;99651.37;1755552;79;21450;-59
2021/12/10 06:45:21;;;;;;;18.20;13.50;;;;;;;4.91;88.20;99649.59;1771531;79;21446;-59
2021/12/10 06:47:50;;;;;;;15.50;12.85;;;;;;;4.99;87.95;99655.95;1754934;80;22016;-59
2021/12/10 06:50:19;;;;;;;19.05;13.22;;;;;;;5.06;87.79;99654.49;1750672;80;21462;-59
2021/12/10 06:52:46;;;;;;;15.00;12.35;;;;;;;5.02;87.68;99650.23;1758302;80;21561;-59
2021/12/10 06:55:13;;;;;;;16.73;13.33;;;;;;;4.93;87.92;99641.30;1757762;79;21549;-59
2021/12/10 06:57:40;;;;;;;16.57;13.48;;;;;;;4.93;87.92;99641.30;1756591;80;21718;-59
2021/12/10 07:00:18;;;;;;;18.70;12.60;;;;;;;4.95;87.93;99653.00;1777687;80;21781;-60
2021/12/10 07:02:46;;;;;;;17.10;13.22;;;;;;;5.02;87.90;99653.30;1747235;80;21851;-64
2021/12/10 07:05:13;;;;;;;16.77;12.88;;;;;;;5.07;87.81;99648.41;1756535;79;21576;-59
2021/12/10 07:07:41;;;;;;;17.20;12.78;;;;;;;5.09;87.76;99647.08;1756793;79;21432;-60
2021/12/10 07:10:10;;;;;;;17.42;13.78;;;;;;;5.07;87.85;99645.80;1762812;80;21568;-60
2021/12/10 07:12:38;;;;;;;18.67;13.32;;;;;;;5.03;87.90;99642.00;1759984;80;21801;-57
2021/12/10 07:15:08;;;;;;;;;;;;;;;5.02;88.12;99630.69;1757409;79;21436;-57
2021/12/10 07:17:43;;;;;;;15.18;11.03;;;;;;;5.09;88.34;99630.59;1774883;80;20416;-57
2021/12/10 07:20:12;;;;;;;16.20;12.35;;;;;;;5.12;88.23;99627.45;1764814;80;22269;-57
2021/12/10 07:22:39;;;;;;;17.42;13.53;;;;;;;5.15;88.14;99632.61;1751666;79;21561;-57
2021/12/10 07:25:07;;;;;;;16.57;13.47;;;;;;;5.11;88.42;99624.44;1750083;80;21617;-56
2021/12/10 07:27:33;;;;;;;;;;;;;;;5.06;88.62;99606.28;1750517;79;21515;-58
2021/12/10 07:30:01;;;;;;;18.07;12.33;;;;;;;5.03;88.91;99599.84;1746215;80;20594;-56
2021/12/10 07:32:28;;;;;;;15.25;12.47;;;;;;;5.04;88.87;99602.85;1764782;80;20962;-57
2021/12/10 07:34:55;;;;;;;14.20;12.33;;;;;;;5.11;88.95;99592.32;1750934;80;21793;-57
2021/12/10 07:37:22;;;;;;;14.85;12.40;;;;;;;5.16;88.94;99590.45;1764507;80;21797;-57
2021/12/10 07:39:49;;;;;;;17.83;13.63;;;;;;;5.16;88.85;99588.72;1755210;80;21480;-55
2021/12/10 07:42:17;;;;;;;18.77;12.68;;;;;;;5.13;88.90;99583.56;1755173;79;21640;-58
2021/12/10 07:44:44;;;;;;;16.90;13.40;;;;;;;5.12;89.24;99587.05;1755960;80;21024;-57
2021/12/10 07:47:13;;;;;;;18.07;12.40;;;;;;;5.22;89.17;99589.04;1758160;79;21029;-57
2021/12/10 07:49:41;;;;;;;17.05;13.35;;;;;;;5.26;88.94;99590.68;1756402;79;21759;-56
2021/12/10 07:52:15;;;;;;;17.50;13.03;;;;;;;5.32;88.83;99611.39;1749161;80;21042;-57
2021/12/10 07:54:38;;;;;;;20.08;14.30;;;;;;;5.31;88.96;99614.88;1751834;80;21445;-56
2021/12/10 07:57:05;;;;;;;18.00;14.10;;;;;;;5.28;88.84;99623.23;1749085;79;21624;-56
2021/12/10 07:59:34;;;;;;;17.35;12.95;;;;;;;5.32;88.97;99623.58;1760498;79;26338;-56
2021/12/10 08:02:03;;;;;;;18.95;14.28;;;;;;;5.39;88.84;99623.41;1748109;79;21929;-56
2021/12/10 08:04:31;;;;;;;21.55;16.42;;;;;;;5.42;88.64;99615.50;1763536;79;21596;-57
2021/12/10 08:06:58;;;;;;;23.17;17.77;;;;;;;5.43;88.73;99615.08;1755436;79;21733;-56
2021/12/10 08:09:27;;;;;;;25.80;17.45;;;;;;;5.39;88.91;99618.65;1748602;80;21717;-56
2021/12/10 08:11:54;;;;;;;22.57;16.03;;;;;;;5.43;88.88;99615.08;1755149;80;21561;-58
2021/12/10 08:14:21;;;;;;;22.80;16.20;;;;;;;5.53;88.71;99610.05;1753869;80;21693;-57
2021/12/10 08:16:49;;;;;;;22.17;16.37;;;;;;;5.55;88.54;99616.55;1755858;79;21525;-58
2021/12/10 08:19:18;;;;;;;23.95;17.42;;;;;;;5.56;88.50;99602.63;1755887;80;21064;-58
2021/12/10 08:21:44;;;;;;;;;;;;;;;5.53;88.69;99597.02;1765257;80;21509;-58
2021/12/10 08:24:11;;;;;;;22.60;17.17;;;;;;;5.51;88.75;99605.32;1753916;79;20413;-59
2021/12/10 08:26:38;;;;;;;24.55;16.77;;;;;;;5.53;89.04;99610.51;1749385;79;21748;-59
2021/12/10 08:29:06;;;;;;;22.58;15.55;;;;;;;5.61;88.85;99608.57;1757561;80;21518;-59
2021/12/10 08:31:34;;;;;;;20.90;16.07;;;;;;;5.70;88.63;99595.77;1750961;80;21021;-58
2021/12/10 08:34:01;;;;;;;20.43;15.15;;;;;;;5.71;88.45;99594.44;1747928;80;21619;-57
2021/12/10 08:36:29;;;;;;;18.20;13.33;;;;;;;5.69;88.65;99600.14;1759128;79;21667;-58
2021/12/10 08:38:56;;;;;;;19.92;14.25;;;;;;;5.66;88.52;99608.88;1752539;79;21830;-59
2021/12/10 08:41:28;;;;;;;16.30;13.40;;;;;;;5.68;88.61;99608.00;1749128;80;21388;-58
2021/12/10 08:43:56;;;;;;;16.27;12.18;;;;;;;5.76;88.73;99606.91;1756264;80;20993;-58
2021/12/10 08:46:25;;;;;;;16.50;13.00;;;;;;;5.82;88.51;99596.34;1766140;79;21552;-59
2021/12/10 08:48:52;;;;;;;13.98;12.33;;;;;;;5.88;88.56;99590.12;1758027;79;21584;-59
2021/12/10 08:51:29;;;;;;;14.98;12.03;;;;;;;5.90;88.58;99591.39;1759598;79;25606;-59
2021/12/10 08:53:56;;;;;;;14.75;12.20;;;;;;;5.88;88.37;99589.23;1775677;79;21593;-58
2021/12/10 08:56:24;;;;;;;13.83;11.08;;;;;;;5.87;88.58;99581.02;1769909;79;21556;-58
2021/12/10 08:58:51;;;;;;;14.10;11.20;;;;;;;5.95;88.36;99572.14;1747412;79;21620;-59
2021/12/10 09:01:24;;;;;;;19.92;12.45;;;;;;;6.04;88.40;99574.95;1748509;80;21429;-58
2021/12/10 09:03:54;;;;;;;13.28;11.88;;;;;;;6.09;87.92;99566.56;1756510;80;21801;-59
2021/12/10 09:06:25;;;;;;;16.25;12.98;;;;;;;6.10;87.95;99564.34;1702891;83;21462;-59
2021/12/10 09:08:52;;;;;;;14.73;12.95;;;;;;;6.10;87.89;99564.80;1715629;81;21557;-58
2021/12/10 09:11:19;;;;;;;14.68;11.48;;;;;;;6.06;87.71;99557.50;1682183;83;21548;-59
2021/12/10 09:13:46;;;;;;;14.07;11.87;;;;;;;6.13;87.90;99545.16;1696801;83;21068;-60
2021/12/10 09:16:22;;;;;;;14.73;12.80;;;;;;;6.21;87.77;99546.64;1696444;83;22145;-59
2021/12/10 09:18:46;;;;;;;15.08;12.25;;;;;;;6.23;87.39;99555.33;1684722;83;21703;-60
2021/12/10 09:21:13;;;;;;;15.08;12.40;;;;;;;6.20;87.16;99544.95;1685265;82;21632;-60
2021/12/10 09:23:42;;;;;;;15.55;12.00;;;;;;;6.13;87.35;99534.26;1709417;82;21663;-58
2021/12/10 09:26:13;;;;;;;15.25;11.33;;;;;;;6.09;87.47;99533.94;1720255;81;21452;-59
2021/12/10 09:28:42;;;;;;;14.73;12.25;;;;;;;6.10;87.62;99533.48;1688239;82;21988;-58
2021/12/10 09:31:10;;;;;;;18.02;10.40;;;;;;;6.15;87.46;99531.16;1691278;82;21472;-59
2021/12/10 09:33:37;;;;;;;13.23;11.77;;;;;;;6.16;87.38;99533.30;1699593;81;21540;-59
2021/12/10 09:36:05;;;;;;;15.32;12.43;;;;;;;6.17;87.37;99528.51;1711723;81;21499;-59
2021/12/10 09:38:31;;;;;;;;;;;;;;;6.15;87.45;99530.30;1704227;82;21729;-58
2021/12/10 09:41:02;;;;;;;17.98;13.43;;;;;;;6.11;87.56;99526.07;1705044;82;22060;-58
2021/12/10 09:43:30;;;;;;;23.98;14.43;;;;;;;6.07;87.64;99523.14;1713946;82;21536;-59
2021/12/10 09:45:58;;;;;;;17.48;13.93;;;;;;;6.13;87.52;99526.88;1700406;82;21607;-60
2021/12/10 09:48:25;;;;;;;18.30;14.30;;;;;;;6.18;87.50;99529.78;1699967;82;21510;-60
2021/12/10 09:51:10;;;;;;;19.02;15.55;;;;;;;6.22;87.24;99518.34;1701862;82;21571;-58
2021/12/10 09:53:38;;;;;;;24.23;17.27;;;;;;;6.20;87.36;99521.91;1699198;82;21822;-57
2021/12/10 09:56:05;;;;;;;24.98;16.40;;;;;;;6.18;87.45;99514.12;1697430;82;21536;-58
2021/12/10 09:58:32;;;;;;;22.22;15.75;;;;;;;6.19;87.37;99519.73;1699853;82;21440;-58
2021/12/10 10:01:25;;;;;;;22.30;15.55;;;;;;;6.24;87.21;99513.94;1697443;82;21520;-56
2021/12/10 10:04:00;;;;;;;19.80;16.02;;;;;;;6.27;87.01;99518.67;1704958;82;21541;-57
2021/12/10 10:06:22;;;;;;;22.10;17.25;;;;;;;6.28;87.06;99513.87;1701150;82;21818;-58
2021/12/10 10:08:50;;;;;;;22.40;16.85;;;;;;;6.25;87.00;99520.01;1702751;82;21545;-60
2021/12/10 10:11:25;;;;;;;22.70;16.93;;;;;;;6.20;86.96;99514.08;1672714;82;21683;-59
2021/12/10 10:13:53;;;;;;;18.17;15.68;;;;;;;6.19;87.00;99511.05;1717327;81;21686;-60
2021/12/10 10:16:20;;;;;;;21.17;16.80;;;;;;;6.22;86.82;99513.13;1702914;83;21432;-60
2021/12/10 10:18:49;;;;;;;21.00;15.72;;;;;;;6.24;86.70;99498.73;1704429;83;21809;-60
2021/12/10 10:21:26;;;;;;;21.05;16.77;;;;;;;6.22;86.72;99490.94;1706849;81;21672;-59
2021/12/10 10:23:53;;;;;;;21.52;17.37;;;;;;;6.15;86.84;99494.61;1705070;81;21533;-60
2021/12/10 10:26:31;;;;;;;26.33;16.30;;;;;;;6.02;87.09;99482.78;1695108;82;21534;-61
2021/12/10 10:28:56;;;;;;;22.85;16.55;;;;;;;6.02;87.09;99482.78;1683816;82;21681;-59
2021/12/10 10:31:23;;;;;;;35.38;18.27;;;;;;;6.05;87.29;99485.33;1719036;81;21747;-60
2021/12/10 10:33:52;;;;;;;18.92;16.77;;;;;;;6.09;87.19;99483.03;1697480;83;21562;-60
2021/12/10 10:36:23;;;;;;;23.50;17.25;;;;;;;6.07;87.22;99479.61;1697850;82;21530;-59
2021/12/10 10:38:54;;;;;;;22.00;18.27;;;;;;;6.03;87.28;99476.69;1695544;82;21595;-59
2021/12/10 10:41:23;;;;;;;25.77;17.42;;;;;;;5.97;87.36;99475.52;1726807;81;21034;-57
2021/12/10 10:43:50;;;;;;;26.25;18.07;;;;;;;5.93;87.87;99465.57;1720050;81;21714;-58
2021/12/10 10:46:17;;;;;;;27.87;18.43;;;;;;;5.99;87.79;99459.37;1720347;81;21560;-58
2021/12/10 10:48:48;;;;;;;26.67;17.57;;;;;;;6.02;87.74;99448.40;1721759;81;21597;-58
2021/12/10 10:51:17;;;;;;;23.83;18.27;;;;;;;6.06;87.61;99453.09;1725896;81;21578;-58
2021/12/10 10:53:48;;;;;;;23.65;19.20;;;;;;;6.06;87.43;99449.17;1730475;81;21502;-60
2021/12/10 10:56:21;;;;;;;24.52;18.07;;;;;;;6.00;87.56;99449.34;1734613;81;21749;-61
2021/12/10 10:58:55;;;;;;;21.93;16.73;;;;;;;5.95;87.96;99440.36;1726485;81;21564;-59
2021/12/10 11:01:26;;;;;;;24.35;18.37;;;;;;;5.99;87.82;99438.06;1722895;81;21643;-60
2021/12/10 11:04:03;;;;;;;21.07;17.40;;;;;;;6.04;87.59;99443.14;1715595;81;21592;-60
2021/12/10 11:06:39;;;;;;;26.02;18.67;;;;;;;6.04;87.55;99444.45;1693148;83;21611;-60
2021/12/10 11:09:27;;;;;;;27.50;20.40;;;;;;;5.97;87.69;99446.39;1686884;82;21822;-58
2021/12/10 11:12:03;;;;;;;25.25;19.90;;;;;;;5.88;87.99;99450.51;1724342;81;21654;-57
2021/12/10 11:14:44;;;;;;;24.70;18.77;;;;;;;5.87;88.03;99452.70;1710754;81;21560;-57
2021/12/10 11:17:19;;;;;;;25.85;19.02;;;;;;;5.89;88.18;99435.70;1712392;81;21599;-58
2021/12/10 11:20:27;;;;;;;26.77;20.55;;;;;;;5.93;88.21;99438.63;1729767;81;21553;-58
2021/12/10 11:22:59;;;;;;;26.33;20.35;;;;;;;5.94;88.06;99433.38;1692525;83;21596;-58
2021/12/10 11:25:31;;;;;;;24.77;19.25;;;;;;;5.89;88.31;99430.48;1676216;83;21728;-60
2021/12/10 11:28:09;;;;;;;28.90;19.80;;;;;;;5.83;88.58;99428.44;1694512;82;21541;-59
2021/12/10 11:30:43;;;;;;;27.20;18.60;;;;;;;5.82;88.84;99422.83;1701661;82;21020;-60
2021/12/10 11:33:19;;;;;;;27.10;19.73;;;;;;;5.89;88.89;99414.83;1688554;82;21522;-60
2021/12/10 11:35:54;;;;;;;21.85;19.52;;;;;;;5.96;88.77;99419.87;1673012;83;21786;-59
2021/12/10 11:38:31;;;;;;;25.52;18.95;;;;;;;5.98;88.72;99419.83;1681592;83;21665;-59
2021/12/10 11:41:04;;;;;;;26.73;20.68;;;;;;;5.95;88.84;99409.43;1674938;83;21524;-60
2021/12/10 11:49:28;;;;;;;26.17;20.10;;;;;;;5.97;89.03;99375.05;1685631;82;21691;-61
2021/12/10 11:52:11;;;;;;;24.25;19.42;;;;;;;6.01;89.35;99367.55;1675460;82;21608;-59
2021/12/10 11:55:08;;;;;;;27.95;19.75;;;;;;;5.98;89.38;99378.07;1686216;82;21026;-61
2021/12/10 11:57:42;;;;;;;25.92;19.80;;;;;;;5.95;89.61;99366.38;1697972;82;21601;-59
2021/12/10 12:00:25;;;;;;;23.70;18.65;;;;;;;5.98;89.83;99380.22;1671650;82;21431;-62